createdAt,value
2022-09-12T00:00:29.891Z,35.28
2022-09-12T00:02:57.844Z,35.36
2022-09-12T00:05:27.081Z,34.90
2022-09-12T00:07:55.262Z,34.85
2022-09-12T00:10:23.339Z,34.98
2022-09-12T00:12:51.626Z,35.21
2022-09-12T00:15:19.907Z,34.90
2022-09-12T00:17:47.976Z,35.34
2022-09-12T00:20:15.972Z,35.17
2022-09-12T00:22:43.971Z,35.44
2022-09-12T00:25:12.251Z,34.77
2022-09-12T00:27:40.295Z,34.31
2022-09-12T00:30:08.611Z,34.03
2022-09-12T00:32:36.616Z,34.34
2022-09-12T00:35:04.769Z,34.31
2022-09-12T00:37:32.772Z,33.90
2022-09-12T00:40:00.794Z,34.80
2022-09-12T00:42:28.882Z,34.60
2022-09-12T00:44:56.931Z,35.23
2022-09-12T00:47:34.307Z,35.08
2022-09-12T00:50:08.260Z,34.92
2022-09-12T00:52:44.771Z,35.03
2022-09-12T00:55:32.935Z,34.96
2022-09-12T00:58:06.532Z,35.21
2022-09-12T01:00:34.864Z,35.49
2022-09-12T01:03:07.249Z,35.90
2022-09-12T01:05:36.616Z,35.91
2022-09-12T01:08:05.692Z,35.84
2022-09-12T01:10:35.936Z,35.78
2022-09-12T01:13:06.406Z,35.88
2022-09-12T01:15:34.995Z,35.73
2022-09-12T01:18:03.163Z,36.17
2022-09-12T01:20:31.331Z,36.12
2022-09-12T01:23:22.324Z,36.70
2022-09-12T01:26:02.530Z,37.05
2022-09-12T01:28:49.189Z,37.48
2022-09-12T01:31:31.597Z,37.59
2022-09-12T01:34:19.168Z,37.92
2022-09-12T01:36:52.462Z,38.39
2022-09-12T01:39:43.367Z,38.36
2022-09-12T01:42:42.209Z,38.65
2022-09-12T01:45:27.075Z,39.06
2022-09-12T01:48:06.325Z,39.12
2022-09-12T01:50:37.351Z,39.25
2022-09-12T01:53:09.567Z,38.97
2022-09-12T01:55:40.388Z,39.53
2022-09-12T01:58:17.134Z,39.49
2022-09-12T02:01:02.738Z,39.80
2022-09-12T02:03:34.666Z,39.71
2022-09-12T02:06:09.899Z,39.58
2022-09-12T02:08:49.896Z,39.89
2022-09-12T02:11:17.981Z,40.09
2022-09-12T02:13:49.965Z,40.17
2022-09-12T02:16:25.028Z,40.31
2022-09-12T02:18:56.448Z,40.81
2022-09-12T02:21:25.883Z,40.89
2022-09-12T02:23:57.986Z,40.44
2022-09-12T02:26:30.205Z,40.62
2022-09-12T02:28:58.347Z,40.66
2022-09-12T02:31:29.242Z,40.45
2022-09-12T02:34:16.141Z,40.53
2022-09-12T02:36:59.005Z,41.07
2022-09-12T02:39:27.147Z,40.78
2022-09-12T02:41:57.582Z,41.10
2022-09-12T02:44:26.930Z,41.07
2022-09-12T02:46:56.994Z,41.38
2022-09-12T02:49:26.143Z,41.55
2022-09-12T02:51:54.324Z,41.47
2022-09-12T02:54:22.381Z,41.76
2022-09-12T02:56:50.372Z,41.86
2022-09-12T02:59:20.291Z,41.61
2022-09-12T03:01:55.369Z,41.61
2022-09-12T03:04:32.572Z,41.88
2022-09-12T03:07:13.471Z,42.46
2022-09-12T03:10:01.893Z,42.62
2022-09-12T03:12:40.270Z,43.13
2022-09-12T03:15:22.015Z,42.78
2022-09-12T03:17:59.647Z,43.07
2022-09-12T03:20:30.461Z,43.07
2022-09-12T03:23:02.019Z,43.58
2022-09-12T03:25:33.751Z,43.51
2022-09-12T03:28:01.846Z,43.71
2022-09-12T03:30:29.969Z,44.01
2022-09-12T03:32:58.031Z,44.58
2022-09-12T03:35:26.514Z,44.01
2022-09-12T03:37:54.686Z,44.96
2022-09-12T03:40:22.830Z,44.59
2022-09-12T03:42:50.851Z,44.91
2022-09-12T03:45:19.646Z,44.91
2022-09-12T03:47:47.766Z,45.34
2022-09-12T03:50:15.761Z,45.60
2022-09-12T03:52:43.811Z,45.55
2022-09-12T03:55:11.955Z,45.97
2022-09-12T03:57:40.067Z,46.25
2022-09-12T04:00:09.725Z,47.04
2022-09-12T04:02:37.891Z,46.98
2022-09-12T04:05:06.216Z,47.17
2022-09-12T04:07:34.210Z,47.67
2022-09-12T04:10:02.260Z,48.65
2022-09-12T04:12:30.822Z,48.12
2022-09-12T04:14:58.846Z,48.09
2022-09-12T04:17:26.822Z,48.19
2022-09-12T04:19:54.851Z,48.20
2022-09-12T04:22:22.956Z,48.14
2022-09-12T04:24:50.952Z,48.58
2022-09-12T04:27:20.969Z,48.45
2022-09-12T04:29:49.025Z,48.78
2022-09-12T04:32:17.001Z,48.45
2022-09-12T04:34:45.064Z,48.17
2022-09-12T04:37:13.056Z,48.30
2022-09-12T04:39:42.268Z,48.80
2022-09-12T04:42:10.271Z,48.51
2022-09-12T04:44:38.686Z,48.92
2022-09-12T04:47:06.841Z,48.64
2022-09-12T04:49:34.971Z,48.47
2022-09-12T04:52:03.311Z,48.86
2022-09-12T04:54:31.331Z,49.18
2022-09-12T04:57:00.089Z,48.74
2022-09-12T04:59:28.757Z,48.85
2022-09-12T05:01:56.793Z,49.36
2022-09-12T05:04:25.219Z,49.27
2022-09-12T05:06:53.351Z,49.36
2022-09-12T05:09:21.729Z,49.67
2022-09-12T05:12:05.640Z,49.88
2022-09-12T05:14:34.514Z,50.44
2022-09-12T05:17:03.154Z,50.58
2022-09-12T05:19:32.293Z,50.87
2022-09-12T05:22:00.911Z,50.70
2022-09-12T05:24:29.411Z,50.91
2022-09-12T05:26:57.712Z,50.95
2022-09-12T05:29:26.516Z,51.10
2022-09-12T05:31:54.856Z,51.37
2022-09-12T05:34:23.122Z,51.36
2022-09-12T05:36:51.335Z,51.38
2022-09-12T05:39:19.651Z,51.54
2022-09-12T05:41:48.276Z,51.47
2022-09-12T05:44:16.436Z,51.15
2022-09-12T05:46:45.260Z,51.32
2022-09-12T05:49:14.702Z,51.02
2022-09-12T05:51:44.748Z,51.07
2022-09-12T05:54:14.372Z,51.40
2022-09-12T05:56:43.642Z,51.35
2022-09-12T05:59:14.207Z,51.04
2022-09-12T06:01:42.800Z,50.73
2022-09-12T06:04:11.652Z,50.62
2022-09-12T06:06:42.696Z,51.09
2022-09-12T06:09:11.187Z,50.73
2022-09-12T06:11:41.906Z,50.49
2022-09-12T06:14:11.165Z,50.59
2022-09-12T06:16:39.868Z,50.94
2022-09-12T06:19:09.537Z,51.10
2022-09-12T06:21:39.850Z,51.11
2022-09-12T06:24:08.721Z,51.24
2022-09-12T06:26:37.406Z,51.55
2022-09-12T06:29:06.044Z,51.37
2022-09-12T06:31:35.971Z,51.75
2022-09-12T06:34:05.894Z,51.45
2022-09-12T06:36:35.581Z,51.83
2022-09-12T06:39:08.611Z,51.87
2022-09-12T06:41:38.455Z,51.88
2022-09-12T06:44:13.725Z,51.78
2022-09-12T06:46:41.731Z,52.04
2022-09-12T06:49:09.891Z,52.03
2022-09-12T06:51:38.358Z,52.23
2022-09-12T06:54:06.526Z,52.13
2022-09-12T06:56:34.664Z,52.60
2022-09-12T06:59:02.706Z,52.80
2022-09-12T07:01:32.135Z,52.71
2022-09-12T07:04:01.646Z,53.15
2022-09-12T07:06:32.929Z,53.13
2022-09-12T07:09:02.038Z,53.40
2022-09-12T07:11:34.541Z,53.41
2022-09-12T07:14:04.126Z,53.75
2022-09-12T07:16:32.280Z,53.83
2022-09-12T07:19:01.588Z,53.96
2022-09-12T07:21:30.055Z,54.14
2022-09-12T07:24:01.571Z,54.29
2022-09-12T07:26:30.389Z,53.97
2022-09-12T07:29:18.591Z,54.02
2022-09-12T07:31:47.596Z,53.92
2022-09-12T07:34:15.636Z,53.77
2022-09-12T07:36:43.652Z,54.05
2022-09-12T07:39:12.271Z,54.05
2022-09-12T07:41:40.457Z,54.00
2022-09-12T07:44:08.499Z,54.16
2022-09-12T07:46:36.617Z,54.21
2022-09-12T07:49:04.611Z,54.37
2022-09-12T07:51:32.912Z,54.51
2022-09-12T07:54:01.089Z,54.64
2022-09-12T07:56:31.134Z,54.76
2022-09-12T07:59:00.911Z,54.82
2022-09-12T08:01:29.021Z,54.97
2022-09-12T08:03:58.821Z,55.28
2022-09-12T08:06:27.769Z,55.14
2022-09-12T08:08:56.916Z,55.45
2022-09-12T08:11:26.310Z,55.46
2022-09-12T08:13:55.882Z,55.44
2022-09-12T08:16:25.535Z,55.55
2022-09-12T08:18:53.571Z,55.53
2022-09-12T08:21:23.010Z,55.52
2022-09-12T08:23:55.271Z,55.81
2022-09-12T08:26:23.362Z,55.45
2022-09-12T08:28:51.498Z,55.91
2022-09-12T08:31:20.581Z,55.95
2022-09-12T08:33:48.931Z,56.07
2022-09-12T08:36:27.171Z,55.95
2022-09-12T08:39:00.143Z,56.39
2022-09-12T08:41:40.933Z,56.44
2022-09-12T08:44:18.139Z,56.61
2022-09-12T08:47:04.611Z,56.24
2022-09-12T08:49:35.811Z,56.50
2022-09-12T08:52:09.211Z,56.55
2022-09-12T08:54:37.256Z,56.57
2022-09-12T08:57:06.575Z,56.68
2022-09-12T08:59:42.186Z,56.88
2022-09-12T09:02:16.025Z,56.90
2022-09-12T09:04:55.791Z,56.88
2022-09-12T09:07:29.895Z,57.03
2022-09-12T09:10:15.152Z,57.18
2022-09-12T09:12:54.510Z,57.14
2022-09-12T09:15:37.579Z,57.28
2022-09-12T09:18:07.017Z,57.10
2022-09-12T09:20:50.689Z,57.26
2022-09-12T09:23:29.391Z,57.24
2022-09-12T09:26:03.522Z,57.33
2022-09-12T09:28:34.372Z,57.45
2022-09-12T09:33:34.416Z,57.40
2022-09-12T09:36:08.710Z,57.54
2022-09-12T09:38:45.404Z,57.56
2022-09-12T09:41:22.221Z,57.45
2022-09-12T09:43:50.372Z,57.61
2022-09-12T09:46:18.551Z,57.52
2022-09-12T09:48:48.859Z,57.47
2022-09-12T09:51:18.933Z,57.70
2022-09-12T09:53:49.930Z,57.63
2022-09-12T09:56:36.428Z,57.66
2022-09-12T09:59:12.856Z,57.79
2022-09-12T10:01:47.543Z,57.74
2022-09-12T10:04:20.949Z,57.88
2022-09-12T10:06:49.032Z,58.03
2022-09-12T10:09:17.073Z,58.20
2022-09-12T10:11:45.994Z,58.09
2022-09-12T10:14:32.616Z,58.27
2022-09-12T10:17:00.612Z,58.45
2022-09-12T10:19:39.211Z,58.52
2022-09-12T10:22:08.409Z,58.58
2022-09-12T10:24:39.486Z,58.53
2022-09-12T10:27:07.441Z,58.75
2022-09-12T10:29:40.609Z,58.69
2022-09-12T10:32:10.305Z,58.62
2022-09-12T10:34:40.292Z,58.75
2022-09-12T10:37:18.530Z,58.66
2022-09-12T10:39:54.422Z,58.81
2022-09-12T10:42:40.951Z,58.71
2022-09-12T10:45:19.306Z,58.78
2022-09-12T10:47:48.133Z,58.88
2022-09-12T10:50:27.186Z,58.99
2022-09-12T10:52:55.971Z,59.07
2022-09-12T10:55:27.654Z,59.01
2022-09-12T10:57:55.651Z,59.02
2022-09-12T11:00:28.773Z,59.11
2022-09-12T11:03:07.977Z,59.55
2022-09-12T11:05:51.321Z,59.56
2022-09-12T11:08:23.334Z,59.55
2022-09-12T11:11:05.735Z,59.57
2022-09-12T11:13:36.971Z,59.68
2022-09-12T11:16:42.090Z,59.54
2022-09-12T11:19:29.120Z,59.72
2022-09-12T11:22:00.208Z,59.86
2022-09-12T11:24:31.375Z,59.88
2022-09-12T11:27:10.031Z,59.98
2022-09-12T11:29:41.091Z,59.88
2022-09-12T11:32:15.171Z,60.05
2022-09-12T11:34:50.704Z,60.11
2022-09-12T11:37:18.671Z,60.35
2022-09-12T11:39:50.383Z,60.48
2022-09-12T11:42:23.616Z,60.49
2022-09-12T11:44:59.813Z,60.53
2022-09-12T11:47:30.211Z,60.43
2022-09-12T11:49:59.166Z,60.50
2022-09-12T11:52:31.581Z,60.50
2022-09-12T11:55:26.022Z,60.67
2022-09-12T11:57:55.173Z,60.60
2022-09-12T12:00:30.059Z,60.70
2022-09-12T12:03:13.545Z,60.63
2022-09-12T12:05:53.214Z,60.76
2022-09-12T12:08:25.886Z,60.69
2022-09-12T12:11:01.686Z,60.72
2022-09-12T12:13:35.198Z,60.90
2022-09-12T12:16:06.415Z,60.90
2022-09-12T12:18:36.639Z,61.03
2022-09-12T12:21:22.861Z,60.92
2022-09-12T12:24:06.456Z,60.98
2022-09-12T12:26:43.656Z,61.07
2022-09-12T12:29:23.271Z,61.22
2022-09-12T12:32:06.772Z,61.17
2022-09-12T12:34:38.827Z,61.18
2022-09-12T12:37:26.542Z,61.30
2022-09-12T12:40:02.133Z,61.50
2022-09-12T12:42:36.192Z,61.41
2022-09-12T12:45:10.212Z,61.53
2022-09-12T12:47:44.105Z,61.66
2022-09-12T12:50:12.148Z,61.56
2022-09-12T12:52:58.980Z,61.48
2022-09-12T12:55:30.046Z,61.71
2022-09-12T12:57:59.091Z,61.87
2022-09-12T13:00:27.498Z,61.81
2022-09-12T13:02:59.061Z,61.94
2022-09-12T13:05:27.811Z,62.04
2022-09-12T13:08:11.214Z,62.15
2022-09-12T13:10:39.807Z,62.28
2022-09-12T13:13:09.734Z,62.47
2022-09-12T13:15:37.721Z,62.42
2022-09-12T13:18:08.200Z,62.54
2022-09-12T13:20:39.647Z,62.71
2022-09-12T13:23:07.778Z,62.55
2022-09-12T13:25:36.771Z,62.68
2022-09-12T13:28:17.017Z,62.58
2022-09-12T13:30:47.803Z,62.70
2022-09-12T13:33:34.201Z,62.80
2022-09-12T13:36:02.211Z,62.95
2022-09-12T13:38:48.476Z,62.95
2022-09-12T13:41:16.722Z,63.14
2022-09-12T13:43:47.970Z,63.18
2022-09-12T13:46:18.824Z,63.35
2022-09-12T13:48:47.229Z,63.34
2022-09-12T13:51:26.987Z,63.52
2022-09-12T13:53:57.251Z,63.59
2022-09-12T13:56:25.421Z,63.61
2022-09-12T13:58:55.141Z,63.59
2022-09-12T14:01:23.685Z,63.56
2022-09-12T14:04:11.813Z,63.44
2022-09-12T14:06:53.247Z,63.40
2022-09-12T14:09:30.187Z,63.42
2022-09-12T14:11:59.411Z,63.33
2022-09-12T14:14:43.171Z,63.34
2022-09-12T14:17:22.999Z,63.29
2022-09-12T14:19:53.631Z,63.23
2022-09-12T14:22:21.810Z,63.10
2022-09-12T14:24:53.926Z,63.18
2022-09-12T14:27:27.177Z,63.02
2022-09-12T14:29:59.332Z,63.10
2022-09-12T14:32:27.347Z,63.13
2022-09-12T14:35:07.332Z,63.16
2022-09-12T14:37:35.485Z,62.87
2022-09-12T14:40:03.987Z,63.03
2022-09-12T14:42:32.938Z,63.01
2022-09-12T14:45:07.428Z,62.96
2022-09-12T14:47:41.384Z,62.92
2022-09-12T14:50:35.337Z,62.91
2022-09-12T14:53:07.447Z,63.00
2022-09-12T14:55:36.756Z,62.90
2022-09-12T14:58:24.527Z,62.93
2022-09-12T15:01:08.294Z,62.75
2022-09-12T15:03:37.971Z,62.85
2022-09-12T15:06:09.079Z,62.86
2022-09-12T15:08:37.330Z,62.96
2022-09-12T15:11:08.396Z,62.78
2022-09-12T15:13:41.096Z,62.79
2022-09-12T15:16:11.654Z,62.73
2022-09-12T15:18:40.410Z,62.61
2022-09-12T15:21:09.930Z,62.47
2022-09-12T15:23:41.261Z,62.54
2022-09-12T15:26:11.411Z,62.33
2022-09-12T15:28:39.393Z,62.28
2022-09-12T15:31:09.768Z,62.17
2022-09-12T15:33:38.031Z,62.22
2022-09-12T15:36:13.254Z,61.96
2022-09-12T15:38:41.258Z,62.02
2022-09-12T15:41:17.416Z,61.79
2022-09-12T15:43:45.711Z,61.77
2022-09-12T15:46:14.892Z,61.66
2022-09-12T15:48:43.011Z,61.40
2022-09-12T15:51:15.657Z,61.26
2022-09-12T15:53:44.694Z,61.30
2022-09-12T15:56:13.012Z,61.01
2022-09-12T15:58:57.292Z,60.93
2022-09-12T16:01:26.887Z,60.87
2022-09-12T16:03:55.437Z,61.11
2022-09-12T16:06:24.453Z,61.11
2022-09-12T16:08:52.550Z,60.93
2022-09-12T16:11:20.596Z,60.91
2022-09-12T16:13:48.617Z,60.56
2022-09-12T16:16:16.763Z,60.44
2022-09-12T16:18:44.820Z,60.69
2022-09-12T16:21:15.219Z,60.57
2022-09-12T16:23:44.776Z,60.29
2022-09-12T16:26:12.854Z,60.07
2022-09-12T16:28:41.060Z,60.14
2022-09-12T16:31:10.159Z,60.04
2022-09-12T16:33:39.340Z,59.89
2022-09-12T16:36:09.693Z,59.70
2022-09-12T16:38:44.811Z,59.66
2022-09-12T16:41:13.416Z,59.18
2022-09-12T16:43:41.980Z,59.67
2022-09-12T16:46:14.868Z,59.51
2022-09-12T16:48:46.927Z,59.34
2022-09-12T16:51:21.258Z,59.09
2022-09-12T16:53:49.887Z,59.18
2022-09-12T16:56:18.382Z,58.85
2022-09-12T16:58:46.491Z,59.20
2022-09-12T17:01:24.977Z,58.79
2022-09-12T17:03:57.796Z,58.50
2022-09-12T17:06:26.811Z,58.68
2022-09-12T17:08:55.814Z,58.23
2022-09-12T17:11:25.397Z,58.28
2022-09-12T17:14:05.821Z,57.91
2022-09-12T17:16:36.492Z,57.63
2022-09-12T17:19:05.108Z,57.64
2022-09-12T17:21:33.115Z,57.56
2022-09-12T17:24:01.244Z,57.16
2022-09-12T17:26:29.357Z,56.93
2022-09-12T17:28:57.420Z,56.85
2022-09-12T17:31:25.570Z,57.11
2022-09-12T17:33:56.928Z,56.64
2022-09-12T17:36:25.186Z,55.92
2022-09-12T17:38:55.156Z,56.35
2022-09-12T17:41:24.937Z,56.00
2022-09-12T17:43:55.332Z,55.92
2022-09-12T17:46:24.666Z,55.53
2022-09-12T17:48:53.721Z,55.53
2022-09-12T17:51:23.091Z,55.29
2022-09-12T17:53:51.172Z,55.37
2022-09-12T17:56:19.171Z,55.22
2022-09-12T17:58:47.172Z,54.91
2022-09-12T18:01:34.062Z,54.57
2022-09-12T18:04:02.693Z,54.87
2022-09-12T18:06:31.491Z,54.59
2022-09-12T18:09:07.011Z,53.94
2022-09-12T18:11:35.516Z,53.84
2022-09-12T18:14:03.906Z,53.27
2022-09-12T18:16:32.611Z,53.04
2022-09-12T18:19:02.686Z,53.29
2022-09-12T18:21:31.012Z,53.11
2022-09-12T18:24:00.371Z,52.82
2022-09-12T18:26:29.576Z,52.46
2022-09-12T18:28:58.214Z,51.73
2022-09-12T18:31:28.217Z,51.39
2022-09-12T18:33:56.769Z,50.51
2022-09-12T18:36:24.886Z,50.02
2022-09-12T18:38:52.936Z,49.96
2022-09-12T18:41:22.521Z,49.70
2022-09-12T18:43:54.370Z,49.14
2022-09-12T18:46:22.834Z,48.65
2022-09-12T18:48:51.170Z,48.42
2022-09-12T18:51:23.566Z,47.90
2022-09-12T18:53:53.867Z,47.62
2022-09-12T18:56:22.984Z,47.41
2022-09-12T18:58:53.245Z,47.62
2022-09-12T19:01:22.670Z,47.66
2022-09-12T19:03:51.331Z,47.21
2022-09-12T19:06:21.007Z,46.94
2022-09-12T19:08:50.064Z,46.85
2022-09-12T19:11:18.535Z,46.72
2022-09-12T19:13:48.206Z,46.53
2022-09-12T19:16:18.588Z,45.33
2022-09-12T19:18:50.516Z,45.14
2022-09-12T19:21:20.222Z,45.15
2022-09-12T19:23:48.359Z,44.56
2022-09-12T19:26:17.411Z,45.06
2022-09-12T19:28:46.211Z,44.88
2022-09-12T19:31:15.893Z,44.81
2022-09-12T19:33:44.111Z,43.54
2022-09-12T19:36:33.989Z,44.23
2022-09-12T19:39:02.185Z,43.87
2022-09-12T19:41:30.182Z,43.55
2022-09-12T19:43:58.231Z,43.86
2022-09-12T19:46:27.059Z,43.66
2022-09-12T19:48:55.312Z,42.38
2022-09-12T19:51:24.916Z,42.67
2022-09-12T19:53:53.321Z,42.48
2022-09-12T19:56:21.448Z,42.15
2022-09-12T19:58:53.731Z,41.79
2022-09-12T20:01:35.688Z,41.56
2022-09-12T20:04:04.026Z,42.10
2022-09-12T20:06:32.067Z,42.18
2022-09-12T20:09:00.160Z,41.98
2022-09-12T20:11:28.270Z,42.11
2022-09-12T20:13:56.294Z,42.04
2022-09-12T20:16:30.266Z,42.50
2022-09-12T20:18:59.960Z,42.67
2022-09-12T20:21:36.767Z,42.57
2022-09-12T20:24:06.365Z,42.60
2022-09-12T20:26:34.356Z,43.12
2022-09-12T20:29:02.455Z,43.24
2022-09-12T20:31:31.285Z,43.33
2022-09-12T20:33:59.497Z,43.71
2022-09-12T20:36:27.789Z,43.71
2022-09-12T20:39:00.915Z,43.58
2022-09-12T20:41:30.125Z,43.44
2022-09-12T20:43:58.463Z,43.51
2022-09-12T20:46:27.493Z,43.55
2022-09-12T20:48:55.972Z,43.70
2022-09-12T20:51:27.458Z,43.61
2022-09-12T20:53:56.056Z,43.74
2022-09-12T20:56:24.689Z,43.77
2022-09-12T20:58:53.076Z,43.28
2022-09-12T21:01:21.787Z,44.14
2022-09-12T21:03:50.347Z,43.96
2022-09-12T21:06:19.005Z,44.04
2022-09-12T21:08:48.115Z,43.79
2022-09-12T21:11:16.772Z,43.88
2022-09-12T21:13:44.880Z,43.93
2022-09-12T21:16:14.339Z,44.52
2022-09-12T21:18:42.950Z,44.12
2022-09-12T21:21:12.286Z,44.42
2022-09-12T21:23:40.308Z,44.38
2022-09-12T21:26:09.027Z,44.18
2022-09-12T21:28:37.091Z,44.20
2022-09-12T21:31:05.737Z,44.44
2022-09-12T21:33:33.845Z,44.19
2022-09-12T21:36:05.861Z,43.64
2022-09-12T21:38:34.006Z,43.65
2022-09-12T21:41:06.197Z,43.06
2022-09-12T21:43:34.372Z,42.75
2022-09-12T21:46:02.989Z,42.89
2022-09-12T21:48:31.656Z,42.80
2022-09-12T21:50:59.809Z,42.31
2022-09-12T21:53:28.293Z,41.85
2022-09-12T21:55:56.412Z,41.49
2022-09-12T21:58:24.411Z,41.52
2022-09-12T22:00:52.913Z,41.86
2022-09-12T22:03:20.966Z,41.31
2022-09-12T22:05:52.297Z,41.34
2022-09-12T22:08:20.406Z,41.42
2022-09-12T22:10:48.552Z,41.54
2022-09-12T22:13:16.617Z,41.90
2022-09-12T22:15:48.793Z,41.49
2022-09-12T22:18:16.806Z,41.34
2022-09-12T22:20:44.911Z,42.04
2022-09-12T22:23:34.466Z,41.77
2022-09-12T22:26:03.356Z,41.54
2022-09-12T22:28:33.211Z,41.57
2022-09-12T22:31:01.697Z,41.25
2022-09-12T22:33:29.832Z,41.75
2022-09-12T22:35:57.891Z,41.80
2022-09-12T22:38:26.982Z,41.85
2022-09-12T22:40:55.376Z,41.88
2022-09-12T22:43:23.496Z,42.07
2022-09-12T22:45:51.631Z,42.21
2022-09-12T22:48:19.806Z,42.44
2022-09-12T22:50:47.972Z,43.01
2022-09-12T22:53:16.017Z,43.45
2022-09-12T22:55:44.887Z,43.33
2022-09-12T22:58:13.346Z,43.73
2022-09-12T23:00:41.510Z,43.63
2022-09-12T23:03:09.741Z,44.44
2022-09-12T23:05:38.476Z,45.11
2022-09-12T23:08:06.531Z,45.04
2022-09-12T23:10:37.566Z,45.37
2022-09-12T23:13:05.794Z,45.13
2022-09-12T23:15:34.371Z,45.76
2022-09-12T23:18:04.941Z,45.58
2022-09-12T23:20:33.256Z,45.79
2022-09-12T23:23:01.251Z,45.82
2022-09-12T23:25:29.458Z,45.53
2022-09-12T23:27:57.555Z,46.18
2022-09-12T23:30:25.627Z,46.17
2022-09-12T23:32:53.711Z,45.97
2022-09-12T23:35:21.731Z,45.23
2022-09-12T23:37:49.995Z,45.37
2022-09-12T23:40:18.645Z,45.62
2022-09-12T23:42:49.020Z,45.17
2022-09-12T23:45:17.071Z,45.62
2022-09-12T23:47:45.171Z,45.75
2022-09-12T23:50:13.191Z,45.80
2022-09-12T23:52:41.219Z,46.01
2022-09-12T23:55:09.732Z,45.84
2022-09-12T23:57:37.731Z,45.77
